createdAt,value
2023-05-03T00:00:08.053Z,16.11
2023-05-03T00:00:31.062Z,16.12
2023-05-03T00:00:53.638Z,16.11
2023-05-03T00:01:15.702Z,16.11
2023-05-03T00:01:37.452Z,16.11
2023-05-03T00:01:59.181Z,16.14
2023-05-03T00:02:21.955Z,16.16
2023-05-03T00:02:44.933Z,16.14
2023-05-03T00:03:07.116Z,16.18
2023-05-03T00:03:29.021Z,16.18
2023-05-03T00:03:52.493Z,16.18
2023-05-03T00:04:16.974Z,16.18
2023-05-03T00:04:38.720Z,16.17
2023-05-03T00:05:00.905Z,16.18
2023-05-03T00:05:22.870Z,16.19
2023-05-03T00:05:45.605Z,16.19
2023-05-03T00:06:11.476Z,16.18
2023-05-03T00:06:33.310Z,16.15
2023-05-03T00:06:55.639Z,16.16
2023-05-03T00:07:18.307Z,16.12
2023-05-03T00:07:42.195Z,16.12
2023-05-03T00:08:04.568Z,16.12
2023-05-03T00:08:27.143Z,16.04
2023-05-03T00:08:48.910Z,16.13
2023-05-03T00:09:10.814Z,16.13
2023-05-03T00:09:33.721Z,16.04
2023-05-03T00:09:56.310Z,16.05
2023-05-03T00:10:18.202Z,16.09
2023-05-03T00:10:39.870Z,16.09
2023-05-03T00:11:01.570Z,16.10
2023-05-03T00:11:24.240Z,16.12
2023-05-03T00:11:45.943Z,16.11
2023-05-03T00:12:07.573Z,16.11
2023-05-03T00:12:29.174Z,16.11
2023-05-03T00:12:51.912Z,16.10
2023-05-03T00:13:13.582Z,16.12
2023-05-03T00:13:35.195Z,16.12
2023-05-03T00:13:56.780Z,16.11
2023-05-03T00:14:19.334Z,16.11
2023-05-03T00:14:40.988Z,16.11
2023-05-03T00:15:47.269Z,16.08
2023-05-03T00:16:08.874Z,16.11
2023-05-03T00:16:30.716Z,16.12
2023-05-03T00:16:54.065Z,16.11
2023-05-03T00:17:16.679Z,16.15
2023-05-03T00:17:38.438Z,16.07
2023-05-03T00:18:00.234Z,16.15
2023-05-03T00:18:22.594Z,16.13
2023-05-03T00:18:46.381Z,16.16
2023-05-03T00:19:14.952Z,16.18
2023-05-03T00:19:42.456Z,16.19
2023-05-03T00:20:05.409Z,16.19
2023-05-03T00:20:28.053Z,16.16
2023-05-03T00:20:50.287Z,16.13
2023-05-03T00:21:12.395Z,16.18
2023-05-03T00:21:34.065Z,16.16
2023-05-03T00:21:55.802Z,16.14
2023-05-03T00:22:18.462Z,16.12
2023-05-03T00:22:40.129Z,16.13
2023-05-03T00:23:02.050Z,16.12
2023-05-03T00:23:24.810Z,16.09
2023-05-03T00:23:46.520Z,16.10
2023-05-03T00:24:08.241Z,16.12
2023-05-03T00:24:29.914Z,16.13
2023-05-03T00:24:52.522Z,16.13
2023-05-03T00:25:15.248Z,16.15
2023-05-03T00:25:36.958Z,16.16
2023-05-03T00:25:59.304Z,16.15
2023-05-03T00:26:22.449Z,16.12
2023-05-03T00:26:44.651Z,16.11
2023-05-03T00:27:06.663Z,16.09
2023-05-03T00:27:28.685Z,16.10
2023-05-03T00:27:51.314Z,16.10
2023-05-03T00:28:12.991Z,16.11
2023-05-03T00:28:34.568Z,16.13
2023-05-03T00:28:56.224Z,16.13
2023-05-03T00:29:21.103Z,16.14
2023-05-03T00:29:43.701Z,16.14
2023-05-03T00:30:06.579Z,16.13
2023-05-03T00:30:28.164Z,16.07
2023-05-03T00:30:51.481Z,16.06
2023-05-03T00:31:14.117Z,16.02
2023-05-03T00:31:36.044Z,16.00
2023-05-03T00:31:57.818Z,15.96
2023-05-03T00:32:20.694Z,15.97
2023-05-03T00:32:42.421Z,15.97
2023-05-03T00:33:05.234Z,16.00
2023-05-03T00:33:26.925Z,16.00
2023-05-03T00:33:48.536Z,16.01
2023-05-03T00:34:10.613Z,16.03
2023-05-03T00:34:33.228Z,16.05
2023-05-03T00:34:56.056Z,16.03
2023-05-03T00:35:18.103Z,16.08
2023-05-03T00:35:39.695Z,16.05
2023-05-03T00:36:08.241Z,16.01
2023-05-03T00:36:30.968Z,15.99
2023-05-03T00:36:52.630Z,16.03
2023-05-03T00:37:14.226Z,16.06
2023-05-03T00:37:37.829Z,16.05
2023-05-03T00:37:59.688Z,16.05
2023-05-03T00:38:21.777Z,16.07
2023-05-03T00:38:43.441Z,16.11
2023-05-03T00:39:06.301Z,16.10
2023-05-03T00:39:29.808Z,16.10
2023-05-03T00:39:52.659Z,16.06
2023-05-03T00:40:18.491Z,16.04
2023-05-03T00:40:40.355Z,16.04
2023-05-03T00:41:03.112Z,16.07
2023-05-03T00:41:24.728Z,16.10
2023-05-03T00:41:47.344Z,16.08
2023-05-03T00:42:09.009Z,16.08
2023-05-03T00:42:30.648Z,16.09
2023-05-03T00:42:52.360Z,16.11
2023-05-03T00:43:14.890Z,16.11
2023-05-03T00:43:37.678Z,16.10
2023-05-03T00:43:59.325Z,16.07
2023-05-03T00:44:20.915Z,16.08
2023-05-03T00:44:43.690Z,16.04
2023-05-03T00:45:06.733Z,16.07
2023-05-03T00:45:30.602Z,16.06
2023-05-03T00:45:59.385Z,16.10
2023-05-03T00:46:31.710Z,16.08
2023-05-03T00:46:54.511Z,15.97
2023-05-03T00:47:16.749Z,16.04
2023-05-03T00:47:38.716Z,16.03
2023-05-03T00:48:01.064Z,16.04
2023-05-03T00:48:23.923Z,16.05
2023-05-03T00:48:46.557Z,16.01
2023-05-03T00:49:08.228Z,16.03
2023-05-03T00:49:29.949Z,15.99
2023-05-03T00:49:52.647Z,15.97
2023-05-03T00:50:14.363Z,16.03
2023-05-03T00:50:37.230Z,16.05
2023-05-03T00:51:00.719Z,16.01
2023-05-03T00:51:24.360Z,15.97
2023-05-03T00:51:46.010Z,15.98
2023-05-03T00:52:09.019Z,15.97
2023-05-03T00:52:31.017Z,15.98
2023-05-03T00:52:52.792Z,15.96
2023-05-03T00:53:15.794Z,15.93
2023-05-03T00:53:37.639Z,15.89
2023-05-03T00:53:59.528Z,15.90
2023-05-03T00:54:21.762Z,15.87
2023-05-03T00:54:44.475Z,15.82
2023-05-03T00:55:08.648Z,15.78
2023-05-03T00:55:31.445Z,15.82
2023-05-03T00:55:54.108Z,15.81
2023-05-03T00:56:20.804Z,15.82
2023-05-03T00:56:51.143Z,15.80
2023-05-03T00:57:13.865Z,15.80
2023-05-03T00:57:36.546Z,15.81
2023-05-03T00:57:58.131Z,15.81
2023-05-03T00:58:20.326Z,15.84
2023-05-03T00:58:41.998Z,15.83
2023-05-03T00:59:04.697Z,15.82
2023-05-03T00:59:27.393Z,15.84
2023-05-03T00:59:49.723Z,15.85
2023-05-03T01:00:13.453Z,15.86
2023-05-03T01:00:37.018Z,15.87
2023-05-03T01:01:00.773Z,15.90
2023-05-03T01:01:22.669Z,15.88
2023-05-03T01:01:47.965Z,15.88
2023-05-03T01:02:10.664Z,15.89
2023-05-03T01:02:32.514Z,15.86
2023-05-03T01:02:54.524Z,15.81
2023-05-03T01:03:16.387Z,15.82
2023-05-03T01:03:41.232Z,15.81
2023-05-03T01:04:07.407Z,15.77
2023-05-03T01:04:30.048Z,15.75
2023-05-03T01:04:53.665Z,15.77
2023-05-03T01:05:15.853Z,15.80
2023-05-03T01:05:49.603Z,15.80
2023-05-03T01:06:18.034Z,15.82
2023-05-03T01:06:48.261Z,15.82
2023-05-03T01:07:23.620Z,15.79
2023-05-03T01:07:53.570Z,15.84
2023-05-03T01:08:23.997Z,15.83
2023-05-03T01:08:54.806Z,15.79
2023-05-03T01:09:24.335Z,15.78
2023-05-03T01:09:53.561Z,15.75
2023-05-03T01:10:23.252Z,15.77
2023-05-03T01:10:53.124Z,15.74
2023-05-03T01:11:22.964Z,15.71
2023-05-03T01:11:52.251Z,15.68
2023-05-03T01:12:25.052Z,15.68
2023-05-03T01:12:56.550Z,15.70
2023-05-03T01:13:27.808Z,15.68
2023-05-03T01:13:58.267Z,15.59
2023-05-03T01:14:28.584Z,15.54
2023-05-03T01:14:59.875Z,15.61
2023-05-03T01:15:33.733Z,15.57
2023-05-03T01:16:06.477Z,15.57
2023-05-03T01:16:35.088Z,15.60
2023-05-03T01:17:02.971Z,15.46
2023-05-03T01:17:29.063Z,15.60
2023-05-03T01:17:54.431Z,15.61
2023-05-03T01:18:20.314Z,15.60
2023-05-03T01:18:48.942Z,15.58
2023-05-03T01:19:20.080Z,15.55
2023-05-03T01:19:45.331Z,15.57
2023-05-03T01:20:11.032Z,15.57
2023-05-03T01:20:35.858Z,15.58
2023-05-03T01:20:59.819Z,15.58
2023-05-03T01:21:22.698Z,15.58
2023-05-03T01:21:51.476Z,15.58
2023-05-03T01:22:22.740Z,15.57
2023-05-03T01:22:56.234Z,15.59
2023-05-03T01:23:31.180Z,15.57
2023-05-03T01:24:00.715Z,15.54
2023-05-03T01:24:24.498Z,15.54
2023-05-03T01:24:51.146Z,15.51
2023-05-03T01:25:15.749Z,15.49
2023-05-03T01:25:38.460Z,15.49
2023-05-03T01:26:00.182Z,15.46
2023-05-03T01:26:23.341Z,15.44
2023-05-03T01:26:45.058Z,15.42
2023-05-03T01:27:09.301Z,15.44
2023-05-03T01:27:31.299Z,15.41
2023-05-03T01:27:53.000Z,15.43
2023-05-03T01:28:14.656Z,15.44
2023-05-03T01:28:37.863Z,15.42
2023-05-03T01:29:00.269Z,15.39
2023-05-03T01:29:21.982Z,15.40
2023-05-03T01:29:44.350Z,15.37
2023-05-03T01:30:09.157Z,15.35
2023-05-03T01:30:32.992Z,15.37
2023-05-03T01:30:56.889Z,15.38
2023-05-03T01:31:23.787Z,15.34
2023-05-03T01:31:53.806Z,15.37
2023-05-03T01:32:22.491Z,15.39
2023-05-03T01:32:55.724Z,15.35
2023-05-03T01:33:27.342Z,15.37
2023-05-03T01:34:02.667Z,15.32
2023-05-03T01:34:33.548Z,15.30
2023-05-03T01:35:06.174Z,15.36
2023-05-03T01:35:37.146Z,15.37
2023-05-03T01:36:05.070Z,15.35
2023-05-03T01:36:32.514Z,15.40
2023-05-03T01:36:58.313Z,15.40
2023-05-03T01:37:20.914Z,15.35
2023-05-03T01:37:43.521Z,15.36
2023-05-03T01:38:05.264Z,15.38
2023-05-03T01:38:29.883Z,15.40
2023-05-03T01:38:51.557Z,15.42
2023-05-03T01:39:18.503Z,15.40
2023-05-03T01:39:46.821Z,15.41
2023-05-03T01:40:10.791Z,15.46
2023-05-03T01:40:40.917Z,15.44
2023-05-03T01:41:09.240Z,15.44
2023-05-03T01:41:33.463Z,15.46
2023-05-03T01:41:56.677Z,15.46
2023-05-03T01:42:20.509Z,15.40
2023-05-03T01:42:42.535Z,15.36
2023-05-03T01:43:05.916Z,15.39
2023-05-03T01:43:31.353Z,15.41
2023-05-03T01:43:54.924Z,15.45
2023-05-03T01:44:17.157Z,15.47
2023-05-03T01:44:41.142Z,15.47
2023-05-03T01:45:04.820Z,15.46
2023-05-03T01:45:26.955Z,15.46
2023-05-03T01:45:50.535Z,15.48
2023-05-03T01:46:14.101Z,15.46
2023-05-03T01:46:43.001Z,15.45
2023-05-03T01:47:07.278Z,15.46
2023-05-03T01:47:28.931Z,15.43
2023-05-03T01:47:51.633Z,15.40
2023-05-03T01:48:16.048Z,15.37
2023-05-03T01:48:37.690Z,15.36
2023-05-03T01:48:59.270Z,15.31
2023-05-03T01:49:21.005Z,15.35
2023-05-03T01:49:44.183Z,15.36
2023-05-03T01:50:08.141Z,15.37
2023-05-03T01:50:29.726Z,15.35
2023-05-03T01:50:51.435Z,15.38
2023-05-03T01:51:13.088Z,15.42
2023-05-03T01:51:35.770Z,15.40
2023-05-03T01:51:57.396Z,15.42
2023-05-03T01:52:18.991Z,15.40
2023-05-03T01:52:40.936Z,15.37
2023-05-03T01:53:02.625Z,15.27
2023-05-03T01:53:25.539Z,15.28
2023-05-03T01:53:47.252Z,15.26
2023-05-03T01:54:08.992Z,15.24
2023-05-03T01:54:30.800Z,15.30
2023-05-03T01:54:53.430Z,15.25
2023-05-03T01:55:15.275Z,15.29
2023-05-03T01:55:38.217Z,15.24
2023-05-03T01:55:59.861Z,15.29
2023-05-03T01:56:22.791Z,15.24
2023-05-03T01:56:44.596Z,15.24
2023-05-03T01:57:06.290Z,15.24
2023-05-03T01:57:28.032Z,15.25
2023-05-03T01:57:50.723Z,15.21
2023-05-03T01:58:13.378Z,15.19
2023-05-03T01:58:35.036Z,15.22
2023-05-03T01:58:56.682Z,15.21
2023-05-03T01:59:19.339Z,15.21
2023-05-03T01:59:40.966Z,15.06
2023-05-03T02:00:02.754Z,15.14
2023-05-03T02:00:34.358Z,15.09
2023-05-03T02:00:57.554Z,15.07
2023-05-03T02:01:19.267Z,15.09
2023-05-03T02:01:41.103Z,15.06
2023-05-03T02:02:02.797Z,15.04
2023-05-03T02:02:26.046Z,15.05
2023-05-03T02:02:47.796Z,15.02
2023-05-03T02:03:09.536Z,15.01
2023-05-03T02:03:31.142Z,15.04
2023-05-03T02:03:54.025Z,15.07
2023-05-03T02:04:15.756Z,15.08
2023-05-03T02:04:37.999Z,15.10
2023-05-03T02:04:59.765Z,15.12
2023-05-03T02:05:22.494Z,15.13
2023-05-03T02:05:44.062Z,15.14
2023-05-03T02:06:05.901Z,15.12
2023-05-03T02:06:27.715Z,15.12
2023-05-03T02:06:52.683Z,15.11
2023-05-03T02:07:14.338Z,15.08
2023-05-03T02:07:35.930Z,15.07
2023-05-03T02:07:57.698Z,15.04
2023-05-03T02:08:19.329Z,15.04
2023-05-03T02:08:41.894Z,14.98
2023-05-03T02:09:04.064Z,14.98
2023-05-03T02:09:25.773Z,14.97
2023-05-03T02:09:47.484Z,14.96
2023-05-03T02:10:14.472Z,14.99
2023-05-03T02:10:37.978Z,14.99
2023-05-03T02:10:59.585Z,14.97
2023-05-03T02:11:21.488Z,14.96
2023-05-03T02:11:45.153Z,14.99
2023-05-03T02:12:07.966Z,15.02
2023-05-03T02:12:29.708Z,14.96
2023-05-03T02:12:51.325Z,14.96
2023-05-03T02:13:14.954Z,14.95
2023-05-03T02:13:38.348Z,14.92
2023-05-03T02:13:59.970Z,14.95
2023-05-03T02:14:21.858Z,14.91
2023-05-03T02:14:44.402Z,14.97
2023-05-03T02:15:07.253Z,14.96
2023-05-03T02:15:29.803Z,14.98
2023-05-03T02:15:52.742Z,15.00
2023-05-03T02:16:14.419Z,14.99
2023-05-03T02:16:36.395Z,14.98
2023-05-03T02:16:58.110Z,14.99
2023-05-03T02:17:20.742Z,14.97
2023-05-03T02:17:45.411Z,14.95
2023-05-03T02:18:08.598Z,14.93
2023-05-03T02:18:31.334Z,14.85
2023-05-03T02:18:55.703Z,14.92
2023-05-03T02:19:17.310Z,14.94
2023-05-03T02:19:39.008Z,14.91
2023-05-03T02:20:02.030Z,14.89
2023-05-03T02:20:24.766Z,14.91
2023-05-03T02:20:46.907Z,14.88
2023-05-03T02:21:08.912Z,14.85
2023-05-03T02:21:31.495Z,14.83
2023-05-03T02:21:53.094Z,14.81
2023-05-03T02:22:14.677Z,14.78
2023-05-03T02:22:36.674Z,14.85
2023-05-03T02:22:58.774Z,14.81
2023-05-03T02:23:21.124Z,14.81
2023-05-03T02:23:43.702Z,14.80
2023-05-03T02:24:06.141Z,14.74
2023-05-03T02:24:29.524Z,14.84
2023-05-03T02:24:51.143Z,14.88
2023-05-03T02:25:12.989Z,14.89
2023-05-03T02:25:35.736Z,14.82
2023-05-03T02:25:59.177Z,14.89
2023-05-03T02:26:20.977Z,14.96
2023-05-03T02:26:42.582Z,14.95
2023-05-03T02:27:05.314Z,14.95
2023-05-03T02:27:27.905Z,14.96
2023-05-03T02:27:49.514Z,14.94
2023-05-03T02:28:11.230Z,14.93
2023-05-03T02:28:32.998Z,14.95
2023-05-03T02:28:56.769Z,14.96
2023-05-03T02:29:18.620Z,14.94
2023-05-03T02:29:40.741Z,14.93
2023-05-03T02:30:04.376Z,14.96
2023-05-03T02:30:33.893Z,14.92
2023-05-03T02:30:55.646Z,14.89
2023-05-03T02:31:18.660Z,14.95
2023-05-03T02:31:40.355Z,14.95
2023-05-03T02:32:05.366Z,14.96
2023-05-03T02:32:27.410Z,14.99
2023-05-03T02:32:49.118Z,15.00
2023-05-03T02:33:13.106Z,14.99
2023-05-03T02:33:35.881Z,14.97
2023-05-03T02:33:57.595Z,14.98
2023-05-03T02:34:19.254Z,14.98
2023-05-03T02:34:41.486Z,14.98
2023-05-03T02:35:07.349Z,14.98
2023-05-03T02:35:29.647Z,15.01
2023-05-03T02:35:51.557Z,15.00
2023-05-03T02:36:13.258Z,14.99
2023-05-03T02:36:36.124Z,15.01
2023-05-03T02:36:57.753Z,14.98
2023-05-03T02:37:19.537Z,14.95
2023-05-03T02:37:41.538Z,14.94
2023-05-03T02:38:07.507Z,14.93
2023-05-03T02:38:30.607Z,14.92
2023-05-03T02:38:52.221Z,14.91
2023-05-03T02:39:13.949Z,14.83
2023-05-03T02:39:35.929Z,14.87
2023-05-03T02:39:59.562Z,14.83
2023-05-03T02:40:21.753Z,14.80
2023-05-03T02:40:43.608Z,14.81
2023-05-03T02:41:06.764Z,14.79
2023-05-03T02:41:29.619Z,14.80
2023-05-03T02:41:51.981Z,14.82
2023-05-03T02:42:13.752Z,14.80
2023-05-03T02:42:35.449Z,14.84
2023-05-03T02:42:58.024Z,14.83
2023-05-03T02:43:23.238Z,14.87
2023-05-03T02:43:45.497Z,14.88
2023-05-03T02:44:07.951Z,14.78
2023-05-03T02:44:31.270Z,14.83
2023-05-03T02:44:55.035Z,14.83
2023-05-03T02:45:18.496Z,14.85
2023-05-03T02:45:40.201Z,14.89
2023-05-03T02:46:01.804Z,14.90
2023-05-03T02:46:24.585Z,14.90
2023-05-03T02:46:46.286Z,14.83
2023-05-03T02:47:10.919Z,14.86
2023-05-03T02:47:35.274Z,14.88
2023-05-03T02:47:59.071Z,14.90
2023-05-03T02:48:21.703Z,14.90
2023-05-03T02:48:43.348Z,14.90
2023-05-03T02:49:05.021Z,14.89
2023-05-03T02:49:29.125Z,14.87
2023-05-03T02:49:51.030Z,14.84
2023-05-03T02:50:12.698Z,14.89
2023-05-03T02:50:35.692Z,14.86
2023-05-03T02:50:58.266Z,14.76
2023-05-03T02:51:20.569Z,14.82
2023-05-03T02:51:42.178Z,14.78
2023-05-03T02:52:03.906Z,14.84
2023-05-03T02:52:26.469Z,14.85
2023-05-03T02:52:48.035Z,14.84
2023-05-03T02:53:09.757Z,14.84
2023-05-03T02:53:31.983Z,14.87
2023-05-03T02:53:57.944Z,14.88
2023-05-03T02:54:19.653Z,14.88
2023-05-03T02:54:41.339Z,14.89
2023-05-03T02:55:06.854Z,14.89
2023-05-03T02:55:30.318Z,14.93
2023-05-03T02:55:52.050Z,14.94
2023-05-03T02:56:15.101Z,14.93
2023-05-03T02:56:36.787Z,14.95
2023-05-03T02:56:59.439Z,14.91
2023-05-03T02:57:21.012Z,14.92
2023-05-03T02:57:43.025Z,14.91
2023-05-03T02:58:07.546Z,14.94
2023-05-03T02:58:29.178Z,14.94
2023-05-03T02:58:51.969Z,14.92
2023-05-03T02:59:14.775Z,14.97
2023-05-03T02:59:37.376Z,14.97
2023-05-03T02:59:59.118Z,14.93
2023-05-03T03:00:21.573Z,14.96
2023-05-03T03:00:43.216Z,14.96
2023-05-03T03:01:06.541Z,14.96
2023-05-03T03:01:28.897Z,14.92
2023-05-03T03:01:51.119Z,14.93
2023-05-03T03:02:12.836Z,14.94
2023-05-03T03:02:35.613Z,14.95
2023-05-03T03:02:57.440Z,14.93
2023-05-03T03:03:19.247Z,14.91
2023-05-03T03:03:41.257Z,14.88
2023-05-03T03:04:03.841Z,14.89
2023-05-03T03:04:26.840Z,14.90
2023-05-03T03:04:48.709Z,14.88
2023-05-03T03:05:10.439Z,14.88
2023-05-03T03:05:33.357Z,14.89
2023-05-03T03:05:56.216Z,14.87
2023-05-03T03:06:18.467Z,14.86
2023-05-03T03:06:40.335Z,14.87
2023-05-03T03:07:01.969Z,14.88
2023-05-03T03:07:25.673Z,14.86
2023-05-03T03:07:51.202Z,14.88
2023-05-03T03:08:12.894Z,14.86
2023-05-03T03:08:35.971Z,14.84
2023-05-03T03:08:59.587Z,14.79
2023-05-03T03:09:21.247Z,14.78
2023-05-03T03:09:42.856Z,14.69
2023-05-03T03:10:06.046Z,14.74
2023-05-03T03:10:27.738Z,14.74
2023-05-03T03:10:49.732Z,14.74
2023-05-03T03:11:11.859Z,14.72
2023-05-03T03:11:35.817Z,14.74
2023-05-03T03:11:57.492Z,14.72
2023-05-03T03:12:19.178Z,14.68
2023-05-03T03:12:41.384Z,14.69
2023-05-03T03:13:07.280Z,14.63
2023-05-03T03:13:32.878Z,14.62
2023-05-03T03:13:55.684Z,14.63
2023-05-03T03:14:20.033Z,14.60
2023-05-03T03:14:45.510Z,14.57
2023-05-03T03:15:08.532Z,14.51
2023-05-03T03:15:30.481Z,14.53
2023-05-03T03:15:52.179Z,14.54
2023-05-03T03:16:14.955Z,14.55
2023-05-03T03:16:36.630Z,14.57
2023-05-03T03:16:58.442Z,14.55
2023-05-03T03:17:20.744Z,14.54
2023-05-03T03:17:43.393Z,14.52
2023-05-03T03:18:06.042Z,14.51
2023-05-03T03:18:27.730Z,14.57
2023-05-03T03:18:49.382Z,14.58
2023-05-03T03:19:12.184Z,14.63
2023-05-03T03:19:33.785Z,14.62
2023-05-03T03:19:58.172Z,14.60
2023-05-03T03:20:20.436Z,14.60
2023-05-03T03:20:44.160Z,14.57
2023-05-03T03:21:05.950Z,14.58
2023-05-03T03:21:29.670Z,14.57
2023-05-03T03:21:51.802Z,14.59
2023-05-03T03:22:14.390Z,14.57
2023-05-03T03:22:36.149Z,14.55
2023-05-03T03:22:57.758Z,14.57
2023-05-03T03:23:19.392Z,14.56
2023-05-03T03:23:41.968Z,14.56
2023-05-03T03:24:04.009Z,14.54
2023-05-03T03:24:26.636Z,14.53
2023-05-03T03:24:48.565Z,14.54
2023-05-03T03:25:11.213Z,14.53
2023-05-03T03:25:34.046Z,14.56
2023-05-03T03:25:55.814Z,14.53
2023-05-03T03:26:17.462Z,14.48
2023-05-03T03:26:41.579Z,14.55
2023-05-03T03:27:03.648Z,14.50
2023-05-03T03:27:25.854Z,14.48
2023-05-03T03:27:47.662Z,14.51
2023-05-03T03:28:10.299Z,14.49
2023-05-03T03:28:32.403Z,14.48
2023-05-03T03:28:56.594Z,14.49
2023-05-03T03:29:18.323Z,14.46
2023-05-03T03:29:40.256Z,14.45
2023-05-03T03:30:03.484Z,14.44
2023-05-03T03:30:29.741Z,14.48
2023-05-03T03:31:03.762Z,14.47
2023-05-03T03:31:26.727Z,14.51
2023-05-03T03:31:50.884Z,14.51
2023-05-03T03:32:13.895Z,14.54
2023-05-03T03:32:35.803Z,14.50
2023-05-03T03:33:00.723Z,14.49
2023-05-03T03:33:29.165Z,14.51
2023-05-03T03:33:57.471Z,14.49
2023-05-03T03:34:23.371Z,14.51
2023-05-03T03:34:45.357Z,14.49
2023-05-03T03:35:08.564Z,14.44
2023-05-03T03:35:30.912Z,14.45
2023-05-03T03:35:53.509Z,14.45
2023-05-03T03:36:19.359Z,14.33
2023-05-03T03:36:43.000Z,14.35
2023-05-03T03:37:05.336Z,14.44
2023-05-03T03:37:27.658Z,14.43
2023-05-03T03:37:50.350Z,14.42
2023-05-03T03:38:12.312Z,14.42
2023-05-03T03:38:41.803Z,14.44
2023-05-03T03:39:05.997Z,14.44
2023-05-03T03:39:30.375Z,14.30
2023-05-03T03:39:52.029Z,14.39
2023-05-03T03:40:13.893Z,14.40
2023-05-03T03:40:35.846Z,14.40
2023-05-03T03:40:58.459Z,14.43
2023-05-03T03:41:23.022Z,14.43
2023-05-03T03:41:46.863Z,14.43
2023-05-03T03:42:10.716Z,14.45
2023-05-03T03:42:33.542Z,14.46
2023-05-03T03:42:55.278Z,14.50
2023-05-03T03:43:16.901Z,14.52
2023-05-03T03:43:38.889Z,14.52
2023-05-03T03:44:06.520Z,14.53
2023-05-03T03:44:28.165Z,14.53
2023-05-03T03:44:49.937Z,14.51
2023-05-03T03:45:11.656Z,14.51
2023-05-03T03:45:34.242Z,14.50
2023-05-03T03:45:56.015Z,14.51
2023-05-03T03:46:17.989Z,14.53
2023-05-03T03:46:41.295Z,14.53
2023-05-03T03:47:04.526Z,14.51
2023-05-03T03:47:26.877Z,14.53
2023-05-03T03:47:49.254Z,14.51
2023-05-03T03:48:11.685Z,14.52
2023-05-03T03:48:34.402Z,14.52
2023-05-03T03:48:56.016Z,14.50
2023-05-03T03:49:20.739Z,14.55
2023-05-03T03:49:42.621Z,14.52
2023-05-03T03:50:05.457Z,14.56
2023-05-03T03:50:29.484Z,14.54
2023-05-03T03:50:52.111Z,14.52
2023-05-03T03:51:16.539Z,14.53
2023-05-03T03:51:42.852Z,14.52
2023-05-03T03:52:05.035Z,14.47
2023-05-03T03:52:27.284Z,14.46
2023-05-03T03:52:49.183Z,14.42
2023-05-03T03:53:12.530Z,14.35
2023-05-03T03:53:36.001Z,14.37
2023-05-03T03:53:57.968Z,14.34
2023-05-03T03:54:23.344Z,14.35
2023-05-03T03:54:46.697Z,14.34
2023-05-03T03:55:08.831Z,14.33
2023-05-03T03:55:31.275Z,14.33
2023-05-03T03:55:53.009Z,14.31
2023-05-03T03:56:15.897Z,14.32
2023-05-03T03:56:37.891Z,14.26
2023-05-03T03:57:02.667Z,14.27
2023-05-03T03:57:29.655Z,14.27
2023-05-03T03:57:51.486Z,14.22
2023-05-03T03:58:13.313Z,14.24
2023-05-03T03:58:35.828Z,14.25
2023-05-03T03:58:58.698Z,14.24
2023-05-03T03:59:22.048Z,14.20
2023-05-03T03:59:44.316Z,14.20
2023-05-03T04:00:11.608Z,14.20
2023-05-03T04:00:42.724Z,14.21
2023-05-03T04:01:09.034Z,14.23
2023-05-03T04:01:31.442Z,14.23
2023-05-03T04:01:53.178Z,14.20
2023-05-03T04:02:15.848Z,14.17
2023-05-03T04:02:37.789Z,14.20
2023-05-03T04:03:01.060Z,14.23
2023-05-03T04:03:23.877Z,14.24
2023-05-03T04:03:46.307Z,14.23
2023-05-03T04:04:09.040Z,14.27
2023-05-03T04:04:32.443Z,14.27
2023-05-03T04:04:54.084Z,14.20
2023-05-03T04:05:17.267Z,14.23
2023-05-03T04:05:40.848Z,14.27
2023-05-03T04:06:04.088Z,14.26
2023-05-03T04:06:27.020Z,14.22
2023-05-03T04:06:50.262Z,14.19
2023-05-03T04:07:12.660Z,14.16
2023-05-03T04:07:34.334Z,14.15
2023-05-03T04:07:57.795Z,14.16
2023-05-03T04:08:25.031Z,14.17
2023-05-03T04:08:46.713Z,14.15
2023-05-03T04:09:10.378Z,14.16
2023-05-03T04:09:33.086Z,14.15
2023-05-03T04:09:56.483Z,14.18
2023-05-03T04:10:19.307Z,14.20
2023-05-03T04:10:40.939Z,14.21
2023-05-03T04:11:03.966Z,14.19
2023-05-03T04:11:30.137Z,14.19
2023-05-03T04:11:54.785Z,14.16
2023-05-03T04:12:18.015Z,14.21
2023-05-03T04:12:41.306Z,14.19
2023-05-03T04:13:03.176Z,14.21
2023-05-03T04:13:24.832Z,14.21
2023-05-03T04:13:48.250Z,14.19
2023-05-03T04:14:11.362Z,14.19
2023-05-03T04:14:33.891Z,14.11
2023-05-03T04:14:57.068Z,14.18
2023-05-03T04:15:18.923Z,14.18
2023-05-03T04:15:42.522Z,14.21
2023-05-03T04:16:04.985Z,14.21
2023-05-03T04:16:27.203Z,14.20
2023-05-03T04:16:49.420Z,14.23
2023-05-03T04:17:11.244Z,14.11
2023-05-03T04:17:34.983Z,14.27
2023-05-03T04:18:00.034Z,14.24
2023-05-03T04:18:22.163Z,14.19
2023-05-03T04:18:44.605Z,14.17
2023-05-03T04:19:07.253Z,14.17
2023-05-03T04:19:33.058Z,14.16
2023-05-03T04:19:54.946Z,14.15
2023-05-03T04:20:17.968Z,14.17
2023-05-03T04:20:44.135Z,14.12
2023-05-03T04:21:06.018Z,14.12
2023-05-03T04:21:28.263Z,14.11
2023-05-03T04:21:50.046Z,14.13
2023-05-03T04:22:14.514Z,14.09
2023-05-03T04:22:36.623Z,14.08
2023-05-03T04:22:58.635Z,14.10
2023-05-03T04:23:23.525Z,14.08
2023-05-03T04:23:45.250Z,14.11
2023-05-03T04:24:10.440Z,14.14
2023-05-03T04:24:32.011Z,14.10
2023-05-03T04:24:54.718Z,14.06
2023-05-03T04:25:17.098Z,14.07
2023-05-03T04:25:46.778Z,14.06
2023-05-03T04:26:17.221Z,14.08
2023-05-03T04:26:51.341Z,14.06
2023-05-03T04:27:21.981Z,14.05
2023-05-03T04:27:44.210Z,14.04
2023-05-03T04:28:06.777Z,14.04
2023-05-03T04:28:29.591Z,14.06
2023-05-03T04:28:52.409Z,14.09
2023-05-03T04:29:15.959Z,14.08
2023-05-03T04:29:39.520Z,14.09
2023-05-03T04:30:01.608Z,14.13
2023-05-03T04:30:25.774Z,14.11
2023-05-03T04:30:49.601Z,14.14
2023-05-03T04:31:16.771Z,14.15
2023-05-03T04:31:39.892Z,14.15
2023-05-03T04:32:02.465Z,14.18
2023-05-03T04:32:24.591Z,14.18
2023-05-03T04:32:49.735Z,14.17
2023-05-03T04:33:12.597Z,14.18
2023-05-03T04:33:35.451Z,14.18
2023-05-03T04:33:58.683Z,14.19
2023-05-03T04:34:22.165Z,14.19
2023-05-03T04:34:49.063Z,14.19
2023-05-03T04:35:12.336Z,14.19
2023-05-03T04:35:38.902Z,14.18
2023-05-03T04:36:06.090Z,14.24
2023-05-03T04:36:29.887Z,14.28
2023-05-03T04:36:52.450Z,14.27
2023-05-03T04:37:14.404Z,14.26
2023-05-03T04:37:37.164Z,14.27
2023-05-03T04:37:59.327Z,14.30
2023-05-03T04:38:22.461Z,14.31
2023-05-03T04:38:44.907Z,14.30
2023-05-03T04:39:07.828Z,14.26
2023-05-03T04:39:30.080Z,14.29
2023-05-03T04:39:51.883Z,14.28
2023-05-03T04:40:13.803Z,14.27
2023-05-03T04:40:40.722Z,14.29
2023-05-03T04:41:04.566Z,14.29
2023-05-03T04:41:26.160Z,14.31
2023-05-03T04:41:48.863Z,14.33
2023-05-03T04:42:12.078Z,14.33
2023-05-03T04:42:36.157Z,14.31
2023-05-03T04:42:58.762Z,14.33
2023-05-03T04:43:20.747Z,14.33
2023-05-03T04:43:44.752Z,14.33
2023-05-03T04:44:06.870Z,14.30
2023-05-03T04:44:29.344Z,14.28
2023-05-03T04:44:52.193Z,14.28
2023-05-03T04:45:14.593Z,14.26
2023-05-03T04:45:37.214Z,14.28
2023-05-03T04:45:59.069Z,14.28
2023-05-03T04:46:23.173Z,14.31
2023-05-03T04:46:46.172Z,14.20
2023-05-03T04:47:10.395Z,14.28
2023-05-03T04:47:32.620Z,14.32
2023-05-03T04:47:55.526Z,14.33
2023-05-03T04:48:18.098Z,14.36
2023-05-03T04:48:39.851Z,14.35
2023-05-03T04:49:02.465Z,14.38
2023-05-03T04:49:24.124Z,14.38
2023-05-03T04:49:46.852Z,14.37
2023-05-03T04:50:11.024Z,14.38
2023-05-03T04:50:36.314Z,14.39
2023-05-03T04:50:58.898Z,14.39
2023-05-03T04:51:20.609Z,14.38
2023-05-03T04:51:42.625Z,14.34
2023-05-03T04:52:05.662Z,14.32
2023-05-03T04:52:27.993Z,14.32
2023-05-03T04:52:50.581Z,14.32
2023-05-03T04:53:13.424Z,14.32
2023-05-03T04:53:38.644Z,14.35
2023-05-03T04:54:06.133Z,14.37
2023-05-03T04:54:28.074Z,14.39
2023-05-03T04:54:50.268Z,14.36
2023-05-03T04:55:13.449Z,14.37
2023-05-03T04:55:35.580Z,14.37
2023-05-03T04:55:58.811Z,14.38
2023-05-03T04:56:26.010Z,14.38
2023-05-03T04:56:54.326Z,14.41
2023-05-03T04:57:15.940Z,14.44
2023-05-03T04:57:38.837Z,14.46
2023-05-03T04:58:02.084Z,14.46
2023-05-03T04:58:25.043Z,14.46
2023-05-03T04:58:47.263Z,14.49
2023-05-03T04:59:10.719Z,14.50
2023-05-03T04:59:33.853Z,14.52
2023-05-03T04:59:55.492Z,14.52
2023-05-03T05:00:17.690Z,14.50
2023-05-03T05:00:46.769Z,14.51
2023-05-03T05:01:14.943Z,14.54
2023-05-03T05:01:36.690Z,14.50
2023-05-03T05:02:01.009Z,14.51